This is the latest recevied weather packets stored in our database for station/object OE6ACM-10. If no packets are shown the sender has not sent any weather packets the latest 1 day(s).
| Time | Temp. | Humidity | Pressure | Rain* | Wind** | Luminosity | Snow |
|---|---|---|---|---|---|---|---|
| 1778087562 | 28.89° C | 100% | 917.2 hPa | - | - | - | - |
| 1778087262 | 29.44° C | 100% | 917.1 hPa | - | - | - | - |
| 1778086962 | 29.44° C | 100% | 917.1 hPa | - | - | - | - |
| 1778086362 | 29.44° C | 100% | 917.1 hPa | - | - | - | - |
| 1778085462 | 30° C | 100% | 917.2 hPa | - | - | - | - |
| 1778085162 | 30° C | 100% | 917.2 hPa | - | - | - | - |
| 1778084262 | 30.56° C | 100% | 917.3 hPa | - | - | - | - |
| 1778083662 | 30.56° C | 100% | 917.4 hPa | - | - | - | - |
| 1778083362 | 30.56° C | 100% | 917.5 hPa | - | - | - | - |
| 1778083062 | 30.56° C | 100% | 917.5 hPa | - | - | - | - |
| 1778082762 | 30° C | 100% | 917.5 hPa | - | - | - | - |
| 1778082462 | 30.56° C | 100% | 917.6 hPa | - | - | - | - |
| 1778081862 | 31.67° C | 100% | 917.5 hPa | - | - | - | - |
| 1778081562 | 31.11° C | 100% | 917.6 hPa | - | - | - | - |
| 1778080962 | 31.67° C | 100% | 917.6 hPa | - | - | - | - |
| 1778080662 | 31.11° C | 100% | 917.6 hPa | - | - | - | - |
| 1778080362 | 31.11° C | 100% | 917.6 hPa | - | - | - | - |
| 1778078862 | 31.11° C | 100% | 917.6 hPa | - | - | - | - |
| 1778078562 | 31.11° C | 97% | 917.5 hPa | - | - | - | - |
| 1778077962 | 31.11° C | 95% | 917.7 hPa | - | - | - | - |
| 1778075562 | 33.33° C | 80% | 917.8 hPa | - | - | - | - |
| 1778075262 | 34.44° C | 76% | 917.8 hPa | - | - | - | - |
| 1778074962 | 35.56° C | 72% | 917.8 hPa | - | - | - | - |
| 1778074362 | 34.44° C | 77% | 918 hPa | - | - | - | - |
| 1778074062 | 35° C | 75% | 917.9 hPa | - | - | - | - |
* Rain since midnight (hover to see other rain measurements)
** Current wind speed in m/s (hover to see current wind gust speed)